Time;durP1;ratioP1;P1;durP2;ratioP2;P2;SDS_P1;SDS_P2;PMS_P1;PMS_P2;Temp;Humidity;BMP_temperature;BMP_pressure;BME280_temperature;BME280_humidity;BME280_pressure;Samples;Min_cycle;Max_cycle;Signal;HPM_P1;HPM_P2
2021/07/31 00:01:38;;;;;;;0.80;0.20;;;24.10;44.60;;;;;;5044992;28;20110;-41
2021/07/31 00:04:06;;;;;;;5.43;0.90;;;24.10;44.70;;;;;;5043916;28;20132;-41
2021/07/31 00:06:33;;;;;;;0.90;0.10;;;24.00;44.60;;;;;;5032390;28;20041;-44
2021/07/31 00:09:00;;;;;;;0.20;0.10;;;24.00;44.70;;;;;;5036437;28;20071;-41
2021/07/31 00:11:29;;;;;;;3.92;0.10;;;24.00;44.70;;;;;;5032668;28;20486;-41
2021/07/31 00:13:56;;;;;;;1.30;0.30;;;23.90;44.70;;;;;;5035822;28;20073;-42
2021/07/31 00:16:23;;;;;;;0.45;0.10;;;23.90;44.70;;;;;;5033701;28;20858;-41
2021/07/31 00:18:51;;;;;;;1.10;0.20;;;23.90;44.80;;;;;;5029164;28;20489;-42
2021/07/31 00:21:18;;;;;;;2.42;0.13;;;23.90;44.80;;;;;;5046642;28;20041;-41
2021/07/31 00:23:45;;;;;;;0.57;0.10;;;23.80;44.80;;;;;;5036186;28;20579;-41
2021/07/31 00:26:12;;;;;;;0.65;0.10;;;23.80;44.90;;;;;;5033531;28;20414;-42
2021/07/31 00:28:40;;;;;;;2.38;0.20;;;23.80;44.90;;;;;;5032968;28;20041;-43
2021/07/31 00:31:08;;;;;;;0.60;0.32;;;23.70;45.00;;;;;;5030758;28;20103;-48
2021/07/31 00:33:35;;;;;;;1.33;0.17;;;23.70;45.00;;;;;;5031318;28;20068;-46
2021/07/31 00:36:02;;;;;;;0.30;0.10;;;23.70;45.10;;;;;;5039316;28;20110;-46
2021/07/31 00:38:29;;;;;;;1.90;0.10;;;23.70;45.20;;;;;;5039252;28;20045;-45
2021/07/31 00:40:56;;;;;;;0.45;0.10;;;23.70;45.30;;;;;;5034935;28;20130;-46
2021/07/31 00:43:23;;;;;;;1.00;0.10;;;23.60;45.30;;;;;;5045583;28;20164;-48
2021/07/31 00:45:52;;;;;;;1.45;0.20;;;23.60;45.40;;;;;;5030196;28;20033;-42
2021/07/31 00:48:19;;;;;;;0.30;0.10;;;23.60;45.50;;;;;;5032696;28;20037;-44
2021/07/31 00:50:46;;;;;;;3.10;0.20;;;23.60;45.60;;;;;;5034691;28;20053;-43
2021/07/31 00:53:14;;;;;;;1.13;0.10;;;23.60;45.80;;;;;;5036374;28;20037;-45
2021/07/31 00:55:41;;;;;;;1.17;0.10;;;23.50;45.80;;;;;;5045317;28;20044;-47
2021/07/31 00:58:09;;;;;;;5.85;1.42;;;23.50;45.90;;;;;;5038630;28;20037;-47
2021/07/31 01:00:40;;;;;;;4.65;1.17;;;23.50;46.00;;;;;;5026066;28;20049;-44
2021/07/31 01:03:09;;;;;;;4.10;0.17;;;23.50;46.10;;;;;;5047409;28;20079;-44
2021/07/31 01:05:36;;;;;;;1.75;0.10;;;23.40;46.20;;;;;;5037725;28;20586;-45
2021/07/31 01:08:04;;;;;;;2.70;0.10;;;23.40;46.30;;;;;;5038178;28;20056;-42
2021/07/31 01:10:32;;;;;;;2.60;0.10;;;23.40;46.40;;;;;;5044344;28;20175;-45
2021/07/31 01:13:01;;;;;;;1.38;0.10;;;23.40;46.50;;;;;;5033582;28;20601;-48
2021/07/31 01:15:31;;;;;;;3.53;0.50;;;23.40;46.50;;;;;;5043157;28;20127;-45
2021/07/31 01:17:58;;;;;;;1.63;0.10;;;23.30;46.60;;;;;;5053179;28;20041;-41
2021/07/31 01:20:27;;;;;;;0.65;0.20;;;23.30;46.60;;;;;;5043661;28;20076;-44
2021/07/31 01:23:02;;;;;;;;;;;23.30;46.70;;;;;;5037654;28;20084;-44
2021/07/31 01:25:30;;;;;;;1.38;0.20;;;23.20;46.50;;;;;;5033967;28;19970;-43
2021/07/31 01:27:57;;;;;;;3.45;0.20;;;23.20;46.90;;;;;;5043979;28;20059;-43
2021/07/31 01:30:25;;;;;;;1.20;0.10;;;23.20;46.90;;;;;;5032415;28;20131;-42
2021/07/31 01:32:53;;;;;;;1.20;0.10;;;23.10;46.90;;;;;;5044710;28;20422;-47
2021/07/31 01:35:20;;;;;;;2.10;0.10;;;23.10;47.00;;;;;;5040035;28;20041;-46
2021/07/31 01:37:48;;;;;;;1.77;0.00;;;23.10;47.10;;;;;;5035099;28;20155;-44
2021/07/31 01:40:18;;;;;;;4.57;0.20;;;23.10;47.20;;;;;;5036353;28;20073;-45
2021/07/31 01:42:46;;;;;;;2.72;0.40;;;23.10;47.20;;;;;;5048035;28;20037;-42
2021/07/31 01:45:13;;;;;;;4.75;0.55;;;23.10;47.20;;;;;;5035897;28;20511;-46
2021/07/31 01:47:43;;;;;;;0.15;0.10;;;23.00;47.20;;;;;;5034588;28;20103;-41
2021/07/31 01:50:11;;;;;;;0.30;0.10;;;23.00;47.30;;;;;;5047303;28;20037;-43
2021/07/31 01:52:45;;;;;;;3.92;1.27;;;23.00;47.50;;;;;;5045342;28;20715;-42
2021/07/31 01:55:14;;;;;;;1.33;0.28;;;23.00;47.50;;;;;;5034928;28;20045;-42
2021/07/31 01:57:45;;;;;;;0.57;0.10;;;23.00;47.60;;;;;;5033339;28;20037;-43
2021/07/31 02:00:35;;;;;;;0.85;0.20;;;23.00;47.70;;;;;;5045516;28;20059;-44
2021/07/31 02:03:06;;;;;;;1.08;0.20;;;22.90;47.70;;;;;;5033730;28;20041;-42
2021/07/31 02:05:40;;;;;;;1.75;0.10;;;22.90;47.80;;;;;;5045419;28;20467;-45
2021/07/31 02:08:08;;;;;;;1.67;0.43;;;22.90;47.90;;;;;;5044330;28;20224;-42
2021/07/31 02:10:53;;;;;;;4.07;0.38;;;22.90;48.00;;;;;;5035047;28;20073;-41
2021/07/31 02:13:23;;;;;;;2.17;0.47;;;22.80;48.00;;;;;;5034053;28;20076;-43
2021/07/31 02:15:51;;;;;;;2.25;0.10;;;22.80;48.10;;;;;;5035133;28;20048;-42
2021/07/31 02:18:27;;;;;;;2.50;0.20;;;22.80;48.20;;;;;;5033863;28;20598;-42
2021/07/31 02:20:55;;;;;;;1.67;0.20;;;22.80;48.20;;;;;;5059401;28;20053;-43
2021/07/31 02:23:35;;;;;;;0.88;0.10;;;22.80;48.30;;;;;;5035483;28;20076;-43
2021/07/31 02:26:25;;;;;;;2.03;0.50;;;22.80;48.50;;;;;;5043643;28;20068;-42
2021/07/31 02:28:59;;;;;;;1.10;0.52;;;22.70;48.50;;;;;;5040500;28;20048;-41
2021/07/31 02:31:28;;;;;;;0.57;0.40;;;22.70;48.60;;;;;;5047046;28;20049;-42
2021/07/31 02:33:55;;;;;;;1.58;0.15;;;22.70;48.60;;;;;;5032397;28;20121;-41
2021/07/31 02:36:25;;;;;;;2.05;0.50;;;22.70;48.70;;;;;;5034015;28;20049;-43
2021/07/31 02:39:04;;;;;;;1.23;0.20;;;22.70;48.70;;;;;;5034387;28;20156;-42
2021/07/31 02:41:31;;;;;;;1.35;0.75;;;22.70;48.80;;;;;;5039206;28;20053;-42
2021/07/31 02:44:02;;;;;;;3.65;0.20;;;22.60;48.80;;;;;;5036082;28;20423;-42
2021/07/31 02:46:30;;;;;;;4.75;0.20;;;22.60;48.90;;;;;;5043045;28;20726;-43
2021/07/31 02:48:58;;;;;;;5.22;0.32;;;22.60;48.90;;;;;;5045529;28;20522;-42
2021/07/31 02:51:25;;;;;;;0.90;0.40;;;22.60;49.00;;;;;;5048032;28;20434;-43
2021/07/31 02:54:19;;;;;;;2.60;0.10;;;22.50;49.00;;;;;;5020501;28;20057;-42
2021/07/31 02:56:46;;;;;;;5.15;0.20;;;22.50;49.20;;;;;;5022781;28;20135;-42
2021/07/31 02:59:20;;;;;;;3.38;0.10;;;22.50;49.20;;;;;;5029272;28;20202;-45
2021/07/31 03:01:47;;;;;;;2.55;0.40;;;22.50;49.30;;;;;;5024253;28;20054;-47
2021/07/31 03:04:16;;;;;;;1.10;0.10;;;22.50;49.40;;;;;;5008808;28;20046;-43
2021/07/31 03:06:45;;;;;;;2.08;1.17;;;22.40;49.40;;;;;;5037906;28;20037;-42
2021/07/31 03:09:15;;;;;;;0.40;0.10;;;22.40;49.40;;;;;;5020535;28;20116;-42
2021/07/31 03:11:42;;;;;;;1.70;0.13;;;22.40;49.50;;;;;;5025015;28;20538;-42
2021/07/31 03:14:09;;;;;;;0.60;0.10;;;22.40;49.60;;;;;;5024106;28;20610;-42
2021/07/31 03:16:41;;;;;;;2.33;0.20;;;22.40;49.70;;;;;;5024525;28;20518;-41
2021/07/31 03:19:08;;;;;;;2.25;0.10;;;22.30;49.70;;;;;;5008692;28;20570;-43
2021/07/31 03:21:41;;;;;;;3.13;0.20;;;22.30;49.80;;;;;;5035649;28;20041;-45
2021/07/31 03:24:15;;;;;;;2.65;0.10;;;22.30;49.90;;;;;;5015471;28;20533;-42
2021/07/31 03:26:42;;;;;;;2.08;0.20;;;22.30;50.00;;;;;;5022394;28;20084;-41
2021/07/31 03:29:14;;;;;;;2.88;0.22;;;22.20;50.00;;;;;;5022388;28;20045;-42
2021/07/31 03:31:42;;;;;;;1.10;0.20;;;22.20;50.10;;;;;;5029760;28;20131;-43
2021/07/31 03:34:09;;;;;;;2.47;0.63;;;22.20;50.70;;;;;;5032695;28;20148;-43
2021/07/31 03:36:38;;;;;;;2.15;0.45;;;22.20;50.20;;;;;;5039150;28;20055;-42
2021/07/31 03:39:06;;;;;;;1.08;0.20;;;22.20;50.30;;;;;;5035103;28;20038;-44
2021/07/31 03:41:37;;;;;;;4.93;0.20;;;22.20;50.30;;;;;;5036138;28;20045;-42
2021/07/31 03:44:07;;;;;;;2.72;0.45;;;22.10;50.30;;;;;;5032652;28;20042;-46
2021/07/31 03:46:44;;;;;;;3.55;0.35;;;22.10;50.40;;;;;;5033887;28;20049;-41
2021/07/31 03:49:13;;;;;;;2.83;0.45;;;22.10;50.50;;;;;;5047466;28;20049;-41
2021/07/31 03:51:41;;;;;;;1.98;0.73;;;22.10;51.10;;;;;;5048789;28;20131;-44
2021/07/31 03:54:08;;;;;;;1.88;0.17;;;22.10;50.60;;;;;;5030369;28;20041;-45
2021/07/31 03:56:35;;;;;;;2.10;0.30;;;22.00;50.60;;;;;;5050828;28;20045;-45
2021/07/31 03:59:09;;;;;;;3.13;1.08;;;22.00;50.70;;;;;;5042854;28;20119;-44
2021/07/31 04:01:37;;;;;;;1.25;0.20;;;22.00;51.30;;;;;;5041216;28;20496;-40
2021/07/31 04:04:09;;;;;;;0.98;0.20;;;22.00;50.80;;;;;;5034443;28;20036;-43
2021/07/31 04:06:36;;;;;;;1.10;0.10;;;22.00;51.00;;;;;;5029525;28;20069;-41
2021/07/31 04:09:32;;;;;;;1.25;0.20;;;22.00;51.00;;;;;;5043791;28;20239;-41
2021/07/31 04:12:18;;;;;;;2.00;0.30;;;21.90;51.00;;;;;;5035214;28;20514;-41
2021/07/31 04:15:05;;;;;;;0.87;0.10;;;21.90;51.10;;;;;;5035418;28;20041;-41
2021/07/31 04:17:32;;;;;;;2.08;0.20;;;21.90;51.20;;;;;;5032058;28;20801;-41
2021/07/31 04:20:01;;;;;;;3.30;0.20;;;21.80;51.30;;;;;;5038228;28;20071;-42
2021/07/31 04:22:30;;;;;;;1.30;0.20;;;21.80;51.40;;;;;;5045017;28;20136;-40
2021/07/31 04:24:58;;;;;;;1.25;0.20;;;21.80;51.40;;;;;;5029215;28;20041;-41
2021/07/31 04:27:25;;;;;;;0.25;0.13;;;21.80;51.50;;;;;;5038396;28;20072;-44
2021/07/31 04:29:52;;;;;;;0.20;0.20;;;21.80;51.60;;;;;;5046360;28;20072;-41
2021/07/31 04:32:19;;;;;;;3.35;0.28;;;21.80;51.60;;;;;;5037783;28;20489;-46
2021/07/31 04:34:46;;;;;;;2.22;0.10;;;21.80;51.70;;;;;;5038522;28;20049;-47
2021/07/31 04:37:14;;;;;;;0.70;0.10;;;21.70;51.70;;;;;;5034438;28;20118;-46
2021/07/31 04:39:42;;;;;;;1.95;0.50;;;21.70;51.80;;;;;;5045486;28;20561;-44
2021/07/31 04:42:09;;;;;;;4.80;0.65;;;21.70;51.90;;;;;;5038211;28;20519;-44
2021/07/31 04:44:37;;;;;;;2.20;0.38;;;21.70;52.00;;;;;;5050592;28;20072;-42
2021/07/31 04:47:04;;;;;;;3.15;1.23;;;21.70;52.10;;;;;;5033786;28;20130;-44
2021/07/31 04:49:35;;;;;;;4.45;0.98;;;21.70;52.20;;;;;;5028165;28;20227;-44
2021/07/31 04:52:02;;;;;;;5.13;0.25;;;21.70;52.40;;;;;;5037810;28;20565;-42
2021/07/31 04:54:30;;;;;;;3.97;0.52;;;21.70;52.40;;;;;;5037657;28;20550;-41
2021/07/31 04:56:57;;;;;;;3.83;1.55;;;21.60;52.40;;;;;;5035195;28;20045;-45
2021/07/31 04:59:24;;;;;;;1.70;0.82;;;21.60;52.50;;;;;;5035042;28;20127;-42
2021/07/31 05:01:51;;;;;;;2.10;0.28;;;21.60;52.60;;;;;;5041787;28;20677;-42
2021/07/31 05:04:18;;;;;;;2.10;0.35;;;21.60;52.60;;;;;;5044204;28;20067;-46
2021/07/31 05:06:45;;;;;;;1.20;0.30;;;21.60;52.70;;;;;;5035437;28;20057;-45
2021/07/31 05:09:13;;;;;;;2.70;0.30;;;21.60;52.80;;;;;;5038042;28;20492;-44
2021/07/31 05:11:42;;;;;;;4.65;0.40;;;21.60;52.90;;;;;;5035654;28;20128;-44
2021/07/31 05:14:09;;;;;;;2.38;0.20;;;21.60;53.00;;;;;;5034407;28;20140;-47
2021/07/31 05:16:36;;;;;;;1.75;0.82;;;21.60;53.00;;;;;;5033885;28;20540;-42
2021/07/31 05:19:03;;;;;;;0.65;0.35;;;21.50;53.00;;;;;;5035807;28;20068;-42
2021/07/31 05:21:30;;;;;;;2.30;0.32;;;21.50;53.10;;;;;;5036671;28;20434;-42
2021/07/31 05:23:57;;;;;;;1.58;0.70;;;21.50;53.10;;;;;;5034566;28;20045;-44
2021/07/31 05:26:24;;;;;;;5.78;0.20;;;21.50;53.20;;;;;;5038163;28;20062;-46
2021/07/31 05:28:53;;;;;;;1.88;0.75;;;21.50;53.80;;;;;;5039553;28;20526;-46
2021/07/31 05:31:21;;;;;;;1.42;0.28;;;21.50;53.30;;;;;;5032343;28;20511;-48
2021/07/31 05:33:48;;;;;;;3.17;0.20;;;21.50;53.40;;;;;;5038476;28;20040;-50
2021/07/31 05:36:15;;;;;;;4.43;0.52;;;21.50;53.50;;;;;;5036188;28;20428;-47
2021/07/31 05:38:42;;;;;;;4.93;0.30;;;21.50;53.50;;;;;;5039215;28;20037;-46
2021/07/31 05:41:14;;;;;;;1.92;0.30;;;21.50;53.60;;;;;;5036789;28;20045;-50
2021/07/31 05:43:41;;;;;;;5.43;0.40;;;21.50;53.70;;;;;;5040352;28;20041;-47
2021/07/31 05:46:09;;;;;;;5.72;0.68;;;21.50;53.70;;;;;;5035963;28;20099;-60
2021/07/31 05:48:36;;;;;;;4.70;0.10;;;21.50;53.90;;;;;;5038921;28;20048;-46
2021/07/31 05:51:03;;;;;;;3.40;0.30;;;21.50;53.90;;;;;;5038455;28;20049;-59
2021/07/31 05:53:30;;;;;;;4.72;1.10;;;21.50;54.00;;;;;;5034786;28;20053;-39
2021/07/31 05:55:59;;;;;;;1.88;0.40;;;21.50;54.10;;;;;;5034751;28;20107;-49
2021/07/31 05:58:27;;;;;;;7.97;0.55;;;21.50;54.10;;;;;;5043024;28;20565;-46
2021/07/31 06:00:54;;;;;;;5.15;0.30;;;21.50;54.10;;;;;;5027067;28;20136;-49
2021/07/31 06:03:22;;;;;;;3.88;0.22;;;21.50;54.10;;;;;;5036806;28;20132;-46
2021/07/31 06:05:49;;;;;;;6.55;1.08;;;21.50;54.10;;;;;;5038159;28;20144;-46
2021/07/31 06:08:16;;;;;;;4.18;0.60;;;21.50;54.10;;;;;;5035257;28;20053;-49
2021/07/31 06:10:43;;;;;;;3.75;1.00;;;21.50;54.10;;;;;;5031162;28;20112;-45
2021/07/31 06:13:10;;;;;;;1.42;0.20;;;21.60;54.20;;;;;;5037799;28;20029;-47
2021/07/31 06:15:41;;;;;;;2.63;0.32;;;21.60;54.30;;;;;;5044003;28;20148;-42
2021/07/31 06:18:08;;;;;;;6.35;0.68;;;21.50;54.40;;;;;;5045595;28;20572;-45
2021/07/31 06:20:37;;;;;;;10.65;1.05;;;21.60;55.20;;;;;;5045026;28;20041;-42
2021/07/31 06:23:04;;;;;;;3.28;0.63;;;21.70;56.00;;;;;;5040970;28;20050;-46
2021/07/31 06:25:31;;;;;;;2.05;0.35;;;21.70;56.50;;;;;;5033432;28;20037;-50
2021/07/31 06:27:58;;;;;;;5.30;0.45;;;21.80;56.90;;;;;;5045667;28;20112;-43
2021/07/31 06:30:25;;;;;;;7.72;1.08;;;21.90;57.00;;;;;;5035043;28;20046;-46
2021/07/31 06:32:52;;;;;;;4.05;0.40;;;22.00;57.20;;;;;;5037640;28;20141;-49
2021/07/31 06:35:19;;;;;;;3.60;0.75;;;22.10;57.20;;;;;;5037684;28;20080;-45
2021/07/31 06:37:48;;;;;;;3.40;0.60;;;22.20;57.20;;;;;;5037743;28;20091;-43
2021/07/31 06:40:15;;;;;;;0.82;0.20;;;22.30;57.10;;;;;;5042505;28;20461;-49
2021/07/31 06:42:42;;;;;;;2.05;0.30;;;22.30;56.90;;;;;;5033003;28;20049;-44
2021/07/31 06:45:10;;;;;;;4.22;0.20;;;22.40;56.80;;;;;;5049421;28;20037;-45
2021/07/31 06:47:37;;;;;;;3.55;0.20;;;22.50;56.80;;;;;;5048667;28;20045;-43
2021/07/31 06:50:09;;;;;;;3.60;0.30;;;22.50;56.50;;;;;;5048283;28;20533;-45
2021/07/31 06:52:37;;;;;;;0.55;0.20;;;22.60;56.40;;;;;;5047353;28;20499;-48
2021/07/31 06:55:06;;;;;;;2.53;0.20;;;22.70;56.40;;;;;;5032563;28;20028;-47
2021/07/31 06:57:33;;;;;;;2.92;0.30;;;22.70;56.20;;;;;;5044506;28;20426;-47
2021/07/31 07:00:00;;;;;;;1.13;0.13;;;22.80;56.20;;;;;;5047099;28;20156;-49
2021/07/31 07:02:27;;;;;;;0.85;0.10;;;22.80;55.90;;;;;;5048264;28;20146;-46
2021/07/31 07:04:54;;;;;;;2.65;1.05;;;22.90;55.80;;;;;;5048036;28;20488;-46
2021/07/31 07:07:21;;;;;;;3.80;0.10;;;22.90;55.70;;;;;;5048361;28;20553;-49
2021/07/31 07:09:49;;;;;;;1.85;0.10;;;23.00;55.60;;;;;;5040429;28;20047;-45
2021/07/31 07:12:17;;;;;;;1.88;0.20;;;23.00;55.40;;;;;;5036013;28;20052;-47
2021/07/31 07:14:44;;;;;;;1.00;0.10;;;23.10;55.40;;;;;;5040309;28;20682;-50
2021/07/31 07:17:12;;;;;;;1.75;0.10;;;23.10;55.20;;;;;;5042885;28;20054;-43
2021/07/31 07:19:39;;;;;;;1.55;0.50;;;23.20;55.10;;;;;;5036646;28;20096;-44
2021/07/31 07:22:06;;;;;;;1.15;0.10;;;23.20;55.00;;;;;;5032300;28;20041;-46
2021/07/31 07:24:35;;;;;;;0.20;0.10;;;23.30;54.90;;;;;;5033382;28;20410;-49
2021/07/31 07:27:02;;;;;;;0.93;0.10;;;23.30;54.80;;;;;;5048295;28;20052;-43
2021/07/31 07:29:30;;;;;;;2.20;0.50;;;23.40;54.70;;;;;;5040699;28;20117;-46
2021/07/31 07:31:57;;;;;;;1.77;0.35;;;23.40;54.60;;;;;;5036610;28;20179;-45
2021/07/31 07:34:24;;;;;;;1.02;0.38;;;23.40;54.50;;;;;;5034672;28;20139;-43
2021/07/31 07:36:52;;;;;;;0.55;0.38;;;23.50;54.40;;;;;;5047315;28;20048;-43
2021/07/31 07:39:19;;;;;;;1.35;0.10;;;23.50;54.30;;;;;;5034684;28;20084;-43
2021/07/31 07:41:46;;;;;;;0.20;0.20;;;23.50;54.10;;;;;;5045138;28;20040;-44
2021/07/31 07:44:13;;;;;;;1.80;0.22;;;23.50;54.00;;;;;;5042250;28;20040;-45
2021/07/31 07:46:42;;;;;;;0.73;0.20;;;23.60;53.90;;;;;;5035652;28;20029;-48
2021/07/31 07:49:09;;;;;;;0.25;0.10;;;23.60;53.80;;;;;;5032207;28;20033;-47
2021/07/31 07:51:36;;;;;;;2.92;0.10;;;23.70;53.80;;;;;;5031993;28;20046;-45
2021/07/31 07:54:03;;;;;;;0.82;0.82;;;23.70;53.60;;;;;;5035754;28;20050;-46
2021/07/31 07:56:30;;;;;;;0.13;0.10;;;23.70;53.50;;;;;;5035651;28;20045;-49
2021/07/31 07:58:59;;;;;;;2.28;0.40;;;23.80;53.50;;;;;;5035669;28;20530;-50
2021/07/31 08:01:28;;;;;;;0.47;0.10;;;23.80;53.40;;;;;;5034222;28;20041;-48
2021/07/31 08:03:57;;;;;;;0.70;0.13;;;23.80;53.30;;;;;;5030520;28;20058;-45
2021/07/31 08:06:25;;;;;;;1.77;0.60;;;23.90;53.30;;;;;;5033256;28;20057;-43
2021/07/31 08:08:52;;;;;;;0.10;0.10;;;23.90;53.20;;;;;;5045595;28;20052;-45
2021/07/31 08:11:19;;;;;;;0.20;0.10;;;23.90;53.10;;;;;;5040627;28;20469;-44
2021/07/31 08:13:46;;;;;;;0.20;0.10;;;23.90;52.90;;;;;;5040129;28;20132;-44
2021/07/31 08:16:13;;;;;;;1.40;0.25;;;24.00;52.90;;;;;;5032379;28;20289;-47
2021/07/31 08:18:40;;;;;;;2.45;0.20;;;24.00;52.80;;;;;;5031198;28;20037;-46
2021/07/31 08:21:09;;;;;;;0.65;0.15;;;24.00;52.70;;;;;;5035525;28;20064;-46
2021/07/31 08:23:36;;;;;;;1.30;0.10;;;24.10;52.70;;;;;;5035098;28;20590;-46
2021/07/31 08:26:05;;;;;;;0.82;0.10;;;24.10;52.60;;;;;;5034968;28;20112;-48
2021/07/31 08:28:32;;;;;;;0.52;0.47;;;24.10;52.50;;;;;;5034245;28;20040;-46
2021/07/31 08:30:59;;;;;;;0.73;0.30;;;24.10;52.40;;;;;;5030534;28;20117;-43
2021/07/31 08:33:26;;;;;;;1.48;0.20;;;24.10;52.30;;;;;;5033347;28;20049;-49
2021/07/31 08:35:58;;;;;;;0.50;0.20;;;24.20;52.30;;;;;;5037038;28;20049;-45
2021/07/31 08:38:27;;;;;;;0.85;0.20;;;24.20;52.20;;;;;;5056317;28;20045;-46
2021/07/31 08:40:54;;;;;;;0.70;0.20;;;24.20;52.10;;;;;;5043651;28;20127;-46
2021/07/31 08:43:21;;;;;;;0.30;0.10;;;24.30;52.00;;;;;;5032617;28;20091;-46
2021/07/31 08:45:49;;;;;;;0.73;0.13;;;24.30;52.00;;;;;;5030524;28;20045;-43
2021/07/31 08:48:18;;;;;;;0.10;0.10;;;24.30;51.90;;;;;;5031458;28;20115;-44
2021/07/31 08:50:45;;;;;;;0.77;0.13;;;24.40;51.90;;;;;;5034627;28;20128;-45
2021/07/31 08:53:12;;;;;;;1.17;0.45;;;24.40;51.80;;;;;;5033254;28;20523;-49
2021/07/31 08:55:43;;;;;;;0.90;0.10;;;24.40;51.70;;;;;;5034886;28;20510;-45
2021/07/31 08:58:11;;;;;;;3.55;0.13;;;24.40;51.60;;;;;;5031631;28;20422;-50
2021/07/31 09:00:38;;;;;;;0.47;0.10;;;24.40;51.50;;;;;;5046976;28;20471;-51
2021/07/31 09:03:05;;;;;;;1.08;0.30;;;24.40;51.50;;;;;;5034915;28;20062;-46
2021/07/31 09:05:34;;;;;;;1.60;0.40;;;24.50;51.40;;;;;;5034962;28;20041;-46
2021/07/31 09:08:02;;;;;;;1.63;0.10;;;24.50;51.40;;;;;;5034534;28;20116;-45
2021/07/31 09:10:32;;;;;;;0.57;0.10;;;24.50;51.30;;;;;;5033354;28;20072;-49
2021/07/31 09:13:03;;;;;;;0.50;0.10;;;24.60;51.30;;;;;;5035007;28;20140;-46
2021/07/31 09:15:36;;;;;;;2.58;0.60;;;24.60;51.20;;;;;;5031814;28;20096;-46
2021/07/31 09:18:23;;;;;;;0.43;0.10;;;24.60;51.20;;;;;;5034910;28;20045;-44
2021/07/31 09:21:02;;;;;;;1.95;0.25;;;24.60;51.00;;;;;;5034812;28;20069;-44
2021/07/31 09:23:41;;;;;;;1.83;0.15;;;24.60;51.00;;;;;;5034480;28;20058;-47
2021/07/31 09:26:08;;;;;;;1.88;0.10;;;24.60;50.90;;;;;;5034441;28;20033;-44
2021/07/31 09:28:40;;;;;;;0.10;0.10;;;24.60;50.90;;;;;;5034370;28;20045;-49
2021/07/31 09:31:08;;;;;;;0.20;0.10;;;24.70;50.80;;;;;;5029198;28;20054;-47
2021/07/31 09:33:35;;;;;;;0.40;0.20;;;24.70;50.70;;;;;;5031002;28;20048;-46
2021/07/31 09:36:03;;;;;;;1.30;0.25;;;24.70;50.70;;;;;;5046651;28;20465;-48
2021/07/31 09:38:39;;;;;;;0.68;0.10;;;24.80;50.70;;;;;;5038686;28;20046;-46
2021/07/31 09:41:28;;;;;;;0.45;0.20;;;24.80;50.60;;;;;;5034323;28;20392;-47
2021/07/31 09:44:16;;;;;;;0.88;0.10;;;24.80;50.40;;;;;;5034426;28;20087;-47
2021/07/31 09:46:45;;;;;;;1.23;0.10;;;24.80;50.40;;;;;;5034390;28;20033;-47
2021/07/31 09:49:14;;;;;;;1.08;0.10;;;24.80;50.40;;;;;;5031190;28;20049;-46
2021/07/31 09:51:42;;;;;;;1.08;0.32;;;24.80;50.30;;;;;;5030240;28;20132;-47
2021/07/31 09:54:11;;;;;;;1.23;0.10;;;24.80;50.20;;;;;;5046053;28;20794;-44
2021/07/31 09:56:43;;;;;;;1.17;0.50;;;24.90;50.20;;;;;;5045176;28;20044;-48
2021/07/31 09:59:12;;;;;;;1.88;0.10;;;24.90;50.10;;;;;;5045495;28;20572;-44
2021/07/31 10:01:42;;;;;;;0.20;0.20;;;24.90;50.10;;;;;;5043833;28;20044;-47
2021/07/31 10:04:10;;;;;;;1.40;0.10;;;24.90;50.00;;;;;;5034086;28;20125;-48
2021/07/31 10:06:38;;;;;;;0.30;0.10;;;24.90;49.90;;;;;;5049918;28;20729;-44
2021/07/31 10:09:07;;;;;;;1.42;0.17;;;25.00;49.90;;;;;;5050335;28;20110;-46
2021/07/31 10:11:35;;;;;;;0.50;0.40;;;25.00;49.80;;;;;;5046511;28;20583;-44
2021/07/31 10:14:03;;;;;;;0.20;0.10;;;25.00;49.70;;;;;;5040228;28;20332;-43
2021/07/31 10:16:31;;;;;;;0.80;0.55;;;25.00;49.70;;;;;;5037135;28;20511;-50
2021/07/31 10:19:02;;;;;;;0.88;0.10;;;25.00;49.60;;;;;;5033108;28;20740;-46
2021/07/31 10:21:31;;;;;;;0.20;0.10;;;25.10;49.60;;;;;;5042505;28;20049;-47
2021/07/31 10:24:03;;;;;;;0.38;0.10;;;25.10;49.50;;;;;;5036909;28;20046;-50
2021/07/31 10:26:34;;;;;;;0.45;0.10;;;25.10;49.50;;;;;;5045279;28;20048;-48
2021/07/31 10:29:34;;;;;;;6.75;0.52;;;25.10;49.50;;;;;;5037966;28;20037;-47
2021/07/31 10:32:32;;;;;;;0.68;0.63;;;25.20;49.40;;;;;;5039090;28;20492;-47
2021/07/31 10:35:02;;;;;;;0.95;0.10;;;25.20;49.40;;;;;;5036558;28;20053;-44
2021/07/31 10:37:48;;;;;;;0.20;0.10;;;25.20;49.40;;;;;;5036651;28;20731;-43
2021/07/31 10:40:52;;;;;;;0.43;0.20;;;25.20;49.30;;;;;;5034314;28;20091;-43
2021/07/31 10:43:19;;;;;;;0.30;0.10;;;25.20;49.20;;;;;;5034995;28;20142;-47
2021/07/31 10:45:49;;;;;;;0.77;0.10;;;25.20;49.30;;;;;;5048912;28;20041;-45
2021/07/31 10:48:24;;;;;;;1.73;0.10;;;25.20;49.20;;;;;;5034415;28;20477;-44
2021/07/31 10:50:53;;;;;;;0.30;0.10;;;25.30;49.20;;;;;;5046267;28;20578;-49
2021/07/31 10:53:21;;;;;;;0.52;0.10;;;25.30;49.20;;;;;;5048040;28;20044;-48
2021/07/31 10:56:06;;;;;;;0.73;0.10;;;25.30;49.20;;;;;;5048532;28;20045;-44
2021/07/31 10:58:33;;;;;;;0.10;0.10;;;25.30;49.10;;;;;;5040195;28;20041;-45
2021/07/31 11:01:21;;;;;;;0.65;0.10;;;25.30;49.10;;;;;;5032587;28;20095;-49
2021/07/31 11:03:49;;;;;;;0.47;0.20;;;25.40;49.10;;;;;;5046923;28;20621;-44
2021/07/31 11:06:18;;;;;;;0.85;0.10;;;25.40;49.10;;;;;;5034397;28;20045;-44
2021/07/31 11:09:12;;;;;;;0.35;0.10;;;25.40;49.00;;;;;;5036786;28;20494;-44
2021/07/31 11:11:39;;;;;;;2.35;0.20;;;25.40;48.90;;;;;;5036913;28;20075;-44
2021/07/31 11:14:07;;;;;;;0.65;0.10;;;25.40;49.00;;;;;;5040633;28;20116;-43
2021/07/31 11:16:34;;;;;;;1.02;0.10;;;25.40;48.90;;;;;;5036679;28;20657;-46
2021/07/31 11:19:02;;;;;;;0.20;0.10;;;25.50;48.90;;;;;;5032221;28;20051;-45
2021/07/31 11:21:33;;;;;;;0.30;0.30;;;25.50;48.90;;;;;;5049599;28;20136;-46
2021/07/31 11:24:02;;;;;;;1.58;0.40;;;25.50;48.90;;;;;;5048774;28;20052;-45
2021/07/31 11:26:38;;;;;;;0.25;0.10;;;25.50;48.80;;;;;;5040925;28;20037;-46
2021/07/31 11:29:10;;;;;;;0.17;0.10;;;25.60;48.90;;;;;;5036836;28;20065;-44
2021/07/31 11:31:38;;;;;;;0.60;0.15;;;25.60;48.80;;;;;;5035492;28;20116;-44
2021/07/31 11:34:08;;;;;;;0.25;0.10;;;25.60;48.80;;;;;;5048412;28;20033;-44
2021/07/31 11:36:37;;;;;;;1.45;0.28;;;25.60;48.80;;;;;;5045256;28;20049;-43
2021/07/31 11:39:06;;;;;;;0.65;0.10;;;25.60;48.70;;;;;;5036930;28;20734;-46
2021/07/31 11:41:40;;;;;;;0.25;0.10;;;25.60;49.20;;;;;;5035486;28;20045;-49
2021/07/31 11:44:07;;;;;;;0.75;0.10;;;25.60;48.60;;;;;;5036379;28;20046;-51
2021/07/31 11:46:37;;;;;;;1.63;0.20;;;25.70;48.70;;;;;;5036088;28;20127;-46
2021/07/31 11:49:06;;;;;;;0.45;0.10;;;25.70;48.60;;;;;;5032020;28;20037;-43
2021/07/31 11:51:40;;;;;;;0.57;0.57;;;25.70;48.60;;;;;;5036864;28;20906;-43
2021/07/31 11:54:08;;;;;;;0.68;0.10;;;25.70;48.50;;;;;;5047491;28;20049;-43
2021/07/31 11:56:36;;;;;;;0.52;0.17;;;25.70;48.50;;;;;;5039607;28;20048;-43
2021/07/31 11:59:05;;;;;;;1.27;0.80;;;25.70;48.40;;;;;;5036069;28;20118;-43
2021/07/31 12:01:32;;;;;;;0.10;0.10;;;25.80;48.50;;;;;;5035322;28;20072;-43
2021/07/31 12:03:59;;;;;;;0.60;0.10;;;25.80;48.40;;;;;;5046905;28;20036;-45
2021/07/31 12:06:42;;;;;;;0.75;0.10;;;25.80;48.40;;;;;;5033222;28;20041;-43
2021/07/31 12:09:24;;;;;;;0.20;0.10;;;25.90;48.20;;;;;;5047621;28;20052;-45
2021/07/31 12:11:54;;;;;;;0.40;0.20;;;25.90;48.10;;;;;;5036427;28;20068;-48
2021/07/31 12:14:39;;;;;;;0.82;0.00;;;25.90;48.20;;;;;;5046558;28;20130;-48
2021/07/31 12:17:21;;;;;;;0.90;0.10;;;25.90;48.10;;;;;;5042785;28;20130;-46
2021/07/31 12:19:50;;;;;;;0.17;0.08;;;25.90;48.10;;;;;;5035556;28;20041;-44
2021/07/31 12:22:20;;;;;;;0.28;0.10;;;25.90;48.00;;;;;;5032905;28;20592;-45
2021/07/31 12:25:10;;;;;;;0.25;0.10;;;25.90;48.00;;;;;;5046868;28;20136;-49
2021/07/31 12:28:13;;;;;;;0.10;0.10;;;26.00;48.00;;;;;;5042811;28;20124;-45
2021/07/31 12:30:41;;;;;;;0.20;0.10;;;26.00;48.00;;;;;;4985522;28;20046;-44
2021/07/31 12:33:19;;;;;;;0.38;0.10;;;26.00;48.00;;;;;;4992456;28;20100;-45
2021/07/31 12:35:48;;;;;;;0.22;0.10;;;26.10;48.00;;;;;;4992983;28;20054;-45
2021/07/31 12:38:20;;;;;;;0.20;0.10;;;26.00;47.90;;;;;;4993080;28;20173;-45
2021/07/31 12:40:52;;;;;;;0.35;0.10;;;26.10;47.90;;;;;;4992792;28;20066;-44
2021/07/31 12:43:19;;;;;;;0.00;0.00;;;26.10;47.80;;;;;;4990640;28;20042;-46
2021/07/31 12:45:47;;;;;;;0.10;0.10;;;26.10;47.80;;;;;;4988509;28;20530;-42
2021/07/31 12:48:16;;;;;;;0.20;0.20;;;26.20;47.80;;;;;;4975113;28;20047;-45
2021/07/31 12:50:44;;;;;;;0.00;0.00;;;26.20;47.80;;;;;;4992794;28;20100;-44
2021/07/31 12:53:12;;;;;;;0.28;0.10;;;26.20;47.80;;;;;;4993430;28;20447;-43
2021/07/31 12:55:41;;;;;;;0.20;0.10;;;26.20;47.80;;;;;;4992872;28;20068;-44
2021/07/31 12:58:08;;;;;;;0.10;0.10;;;26.20;48.30;;;;;;4996799;28;20046;-48
2021/07/31 13:00:36;;;;;;;0.45;0.10;;;26.30;47.70;;;;;;4991647;28;20084;-44
2021/07/31 13:03:04;;;;;;;0.10;0.10;;;26.30;47.70;;;;;;5042564;28;20120;-46